sensor_id;sensor_type;location;lat;lon;timestamp;P1;durP1;ratioP1;P2;durP2;ratioP2
3891;SDS011;1961;48.194;16.370;2023-02-25T00:01:19;46.95;;;4.43;;
3891;SDS011;1961;48.194;16.370;2023-02-25T00:03:46;51.15;;;4.90;;
3891;SDS011;1961;48.194;16.370;2023-02-25T00:06:13;42.90;;;4.78;;
3891;SDS011;1961;48.194;16.370;2023-02-25T00:08:44;55.08;;;5.60;;
3891;SDS011;1961;48.194;16.370;2023-02-25T00:11:11;42.05;;;4.60;;
3891;SDS011;1961;48.194;16.370;2023-02-25T00:13:38;42.92;;;4.03;;
3891;SDS011;1961;48.194;16.370;2023-02-25T00:16:05;41.28;;;4.80;;
3891;SDS011;1961;48.194;16.370;2023-02-25T00:18:31;44.00;;;4.68;;
3891;SDS011;1961;48.194;16.370;2023-02-25T00:20:57;43.65;;;4.50;;
3891;SDS011;1961;48.194;16.370;2023-02-25T00:23:24;42.15;;;4.70;;
3891;SDS011;1961;48.194;16.370;2023-02-25T00:25:58;43.60;;;4.63;;
3891;SDS011;1961;48.194;16.370;2023-02-25T00:28:25;43.00;;;4.63;;
3891;SDS011;1961;48.194;16.370;2023-02-25T00:30:51;43.47;;;4.93;;
3891;SDS011;1961;48.194;16.370;2023-02-25T00:33:17;42.22;;;4.90;;
3891;SDS011;1961;48.194;16.370;2023-02-25T00:35:43;44.50;;;4.43;;
3891;SDS011;1961;48.194;16.370;2023-02-25T00:38:09;45.33;;;5.07;;
3891;SDS011;1961;48.194;16.370;2023-02-25T00:40:38;44.97;;;4.72;;
3891;SDS011;1961;48.194;16.370;2023-02-25T00:43:05;42.28;;;4.97;;
3891;SDS011;1961;48.194;16.370;2023-02-25T00:45:32;44.55;;;4.57;;
3891;SDS011;1961;48.194;16.370;2023-02-25T00:47:58;41.25;;;4.68;;
3891;SDS011;1961;48.194;16.370;2023-02-25T00:50:25;41.20;;;5.00;;
3891;SDS011;1961;48.194;16.370;2023-02-25T00:52:51;40.83;;;4.50;;
3891;SDS011;1961;48.194;16.370;2023-02-25T00:55:17;43.33;;;4.50;;
3891;SDS011;1961;48.194;16.370;2023-02-25T00:57:44;43.75;;;4.40;;
3891;SDS011;1961;48.194;16.370;2023-02-25T01:00:10;41.85;;;4.50;;
3891;SDS011;1961;48.194;16.370;2023-02-25T01:02:43;42.33;;;4.78;;
3891;SDS011;1961;48.194;16.370;2023-02-25T01:05:12;40.28;;;4.15;;
3891;SDS011;1961;48.194;16.370;2023-02-25T01:07:39;41.75;;;4.30;;
3891;SDS011;1961;48.194;16.370;2023-02-25T01:10:05;41.30;;;4.45;;
3891;SDS011;1961;48.194;16.370;2023-02-25T01:12:31;40.65;;;4.75;;
3891;SDS011;1961;48.194;16.370;2023-02-25T01:14:58;42.45;;;3.97;;
3891;SDS011;1961;48.194;16.370;2023-02-25T01:17:24;40.13;;;4.38;;
3891;SDS011;1961;48.194;16.370;2023-02-25T01:19:50;41.35;;;4.60;;
3891;SDS011;1961;48.194;16.370;2023-02-25T01:22:16;40.50;;;3.85;;
3891;SDS011;1961;48.194;16.370;2023-02-25T01:24:42;42.63;;;4.60;;
3891;SDS011;1961;48.194;16.370;2023-02-25T01:27:09;42.53;;;4.80;;
3891;SDS011;1961;48.194;16.370;2023-02-25T01:29:37;43.47;;;4.75;;
3891;SDS011;1961;48.194;16.370;2023-02-25T01:32:06;41.35;;;5.25;;
3891;SDS011;1961;48.194;16.370;2023-02-25T01:34:32;42.33;;;5.85;;
3891;SDS011;1961;48.194;16.370;2023-02-25T01:36:58;42.50;;;4.65;;
3891;SDS011;1961;48.194;16.370;2023-02-25T01:39:25;41.40;;;5.88;;
3891;SDS011;1961;48.194;16.370;2023-02-25T01:41:52;41.50;;;4.78;;
3891;SDS011;1961;48.194;16.370;2023-02-25T01:44:20;41.15;;;5.32;;
3891;SDS011;1961;48.194;16.370;2023-02-25T01:46:47;42.35;;;5.53;;
3891;SDS011;1961;48.194;16.370;2023-02-25T01:49:18;42.22;;;5.00;;
3891;SDS011;1961;48.194;16.370;2023-02-25T01:51:46;42.45;;;6.35;;
3891;SDS011;1961;48.194;16.370;2023-02-25T01:54:13;44.45;;;5.00;;
3891;SDS011;1961;48.194;16.370;2023-02-25T01:56:41;40.63;;;4.88;;
3891;SDS011;1961;48.194;16.370;2023-02-25T01:59:09;41.63;;;4.72;;
3891;SDS011;1961;48.194;16.370;2023-02-25T02:01:36;41.53;;;5.20;;
3891;SDS011;1961;48.194;16.370;2023-02-25T02:04:03;41.28;;;5.03;;
3891;SDS011;1961;48.194;16.370;2023-02-25T02:06:32;41.00;;;4.80;;
3891;SDS011;1961;48.194;16.370;2023-02-25T02:09:00;41.90;;;4.93;;
3891;SDS011;1961;48.194;16.370;2023-02-25T02:11:28;42.33;;;4.40;;
3891;SDS011;1961;48.194;16.370;2023-02-25T02:13:55;41.97;;;5.30;;
3891;SDS011;1961;48.194;16.370;2023-02-25T02:19:15;40.55;;;4.30;;
3891;SDS011;1961;48.194;16.370;2023-02-25T02:21:58;40.28;;;4.50;;
3891;SDS011;1961;48.194;16.370;2023-02-25T02:26:59;40.47;;;4.47;;
3891;SDS011;1961;48.194;16.370;2023-02-25T02:40:21;40.35;;;5.25;;
3891;SDS011;1961;48.194;16.370;2023-02-25T02:51:16;40.92;;;4.90;;
3891;SDS011;1961;48.194;16.370;2023-02-25T02:53:50;40.72;;;5.20;;
3891;SDS011;1961;48.194;16.370;2023-02-25T02:56:17;40.90;;;4.45;;
3891;SDS011;1961;48.194;16.370;2023-02-25T02:58:46;41.15;;;5.00;;
3891;SDS011;1961;48.194;16.370;2023-02-25T03:01:14;41.13;;;5.25;;
3891;SDS011;1961;48.194;16.370;2023-02-25T03:03:49;40.90;;;4.47;;
3891;SDS011;1961;48.194;16.370;2023-02-25T03:06:18;41.20;;;4.60;;
3891;SDS011;1961;48.194;16.370;2023-02-25T03:08:47;41.92;;;4.35;;
3891;SDS011;1961;48.194;16.370;2023-02-25T03:11:14;40.55;;;4.50;;
3891;SDS011;1961;48.194;16.370;2023-02-25T03:13:41;40.90;;;5.07;;
3891;SDS011;1961;48.194;16.370;2023-02-25T03:16:08;41.20;;;4.90;;
3891;SDS011;1961;48.194;16.370;2023-02-25T03:18:40;40.30;;;4.47;;
3891;SDS011;1961;48.194;16.370;2023-02-25T03:21:11;39.70;;;4.38;;
3891;SDS011;1961;48.194;16.370;2023-02-25T03:23:38;39.85;;;4.13;;
3891;SDS011;1961;48.194;16.370;2023-02-25T03:26:11;40.30;;;4.75;;
3891;SDS011;1961;48.194;16.370;2023-02-25T03:28:38;46.10;;;4.38;;
3891;SDS011;1961;48.194;16.370;2023-02-25T03:31:10;40.00;;;4.10;;
3891;SDS011;1961;48.194;16.370;2023-02-25T03:33:45;39.97;;;4.00;;
3891;SDS011;1961;48.194;16.370;2023-02-25T03:36:16;39.97;;;4.47;;
3891;SDS011;1961;48.194;16.370;2023-02-25T03:38:45;39.08;;;3.70;;
3891;SDS011;1961;48.194;16.370;2023-02-25T03:41:12;39.30;;;3.88;;
3891;SDS011;1961;48.194;16.370;2023-02-25T03:43:48;39.83;;;4.45;;
3891;SDS011;1961;48.194;16.370;2023-02-25T03:46:16;39.80;;;3.70;;
3891;SDS011;1961;48.194;16.370;2023-02-25T03:48:42;39.53;;;4.10;;
3891;SDS011;1961;48.194;16.370;2023-02-25T03:51:09;39.25;;;4.00;;
3891;SDS011;1961;48.194;16.370;2023-02-25T03:53:38;40.42;;;3.85;;
3891;SDS011;1961;48.194;16.370;2023-02-25T03:56:06;39.85;;;4.55;;
3891;SDS011;1961;48.194;16.370;2023-02-25T03:58:34;39.40;;;3.95;;
3891;SDS011;1961;48.194;16.370;2023-02-25T04:01:02;39.55;;;4.38;;
3891;SDS011;1961;48.194;16.370;2023-02-25T04:03:29;39.42;;;4.38;;
3891;SDS011;1961;48.194;16.370;2023-02-25T04:05:56;39.25;;;3.63;;
3891;SDS011;1961;48.194;16.370;2023-02-25T04:08:22;39.90;;;4.40;;
3891;SDS011;1961;48.194;16.370;2023-02-25T04:10:48;39.35;;;3.95;;
3891;SDS011;1961;48.194;16.370;2023-02-25T04:13:15;39.55;;;4.07;;
3891;SDS011;1961;48.194;16.370;2023-02-25T04:15:44;39.53;;;3.78;;
3891;SDS011;1961;48.194;16.370;2023-02-25T04:18:11;39.30;;;3.92;;
3891;SDS011;1961;48.194;16.370;2023-02-25T04:20:38;39.92;;;4.30;;
3891;SDS011;1961;48.194;16.370;2023-02-25T04:23:05;39.63;;;4.35;;
3891;SDS011;1961;48.194;16.370;2023-02-25T04:25:31;39.13;;;3.60;;
3891;SDS011;1961;48.194;16.370;2023-02-25T04:27:58;39.65;;;4.22;;
3891;SDS011;1961;48.194;16.370;2023-02-25T04:30:25;39.20;;;3.85;;
3891;SDS011;1961;48.194;16.370;2023-02-25T04:32:51;39.45;;;3.63;;
3891;SDS011;1961;48.194;16.370;2023-02-25T04:35:17;39.53;;;3.60;;
3891;SDS011;1961;48.194;16.370;2023-02-25T04:37:44;39.78;;;3.72;;
3891;SDS011;1961;48.194;16.370;2023-02-25T04:40:14;39.83;;;4.60;;
3891;SDS011;1961;48.194;16.370;2023-02-25T04:42:41;39.72;;;4.47;;
3891;SDS011;1961;48.194;16.370;2023-02-25T04:45:08;39.50;;;4.00;;
3891;SDS011;1961;48.194;16.370;2023-02-25T04:47:34;40.65;;;4.60;;
3891;SDS011;1961;48.194;16.370;2023-02-25T04:50:01;39.55;;;3.83;;
3891;SDS011;1961;48.194;16.370;2023-02-25T04:52:27;39.20;;;3.67;;
3891;SDS011;1961;48.194;16.370;2023-02-25T04:54:53;39.45;;;4.00;;
3891;SDS011;1961;48.194;16.370;2023-02-25T04:57:20;39.40;;;3.70;;
3891;SDS011;1961;48.194;16.370;2023-02-25T04:59:46;39.55;;;3.95;;
3891;SDS011;1961;48.194;16.370;2023-02-25T05:02:12;39.65;;;3.97;;
3891;SDS011;1961;48.194;16.370;2023-02-25T05:04:39;39.28;;;3.72;;
3891;SDS011;1961;48.194;16.370;2023-02-25T05:07:06;39.38;;;4.47;;
3891;SDS011;1961;48.194;16.370;2023-02-25T05:09:32;39.38;;;3.70;;
3891;SDS011;1961;48.194;16.370;2023-02-25T05:12:00;39.45;;;4.38;;
3891;SDS011;1961;48.194;16.370;2023-02-25T05:14:28;39.75;;;3.80;;
3891;SDS011;1961;48.194;16.370;2023-02-25T05:16:54;39.28;;;3.80;;
3891;SDS011;1961;48.194;16.370;2023-02-25T05:19:22;41.60;;;4.20;;
3891;SDS011;1961;48.194;16.370;2023-02-25T05:21:49;39.47;;;4.20;;
3891;SDS011;1961;48.194;16.370;2023-02-25T05:24:15;39.83;;;4.70;;
3891;SDS011;1961;48.194;16.370;2023-02-25T05:26:42;39.47;;;4.30;;
3891;SDS011;1961;48.194;16.370;2023-02-25T05:29:09;40.53;;;4.50;;
3891;SDS011;1961;48.194;16.370;2023-02-25T05:31:35;39.53;;;4.45;;
3891;SDS011;1961;48.194;16.370;2023-02-25T05:34:01;39.80;;;4.68;;
3891;SDS011;1961;48.194;16.370;2023-02-25T05:36:28;39.65;;;4.32;;
3891;SDS011;1961;48.194;16.370;2023-02-25T05:38:55;40.63;;;4.90;;
3891;SDS011;1961;48.194;16.370;2023-02-25T05:41:27;39.38;;;4.25;;
3891;SDS011;1961;48.194;16.370;2023-02-25T05:43:53;39.42;;;4.28;;
3891;SDS011;1961;48.194;16.370;2023-02-25T05:46:19;39.33;;;3.72;;
3891;SDS011;1961;48.194;16.370;2023-02-25T05:48:46;39.83;;;4.68;;
3891;SDS011;1961;48.194;16.370;2023-02-25T05:51:17;39.63;;;4.38;;
3891;SDS011;1961;48.194;16.370;2023-02-25T05:53:44;39.45;;;4.60;;
3891;SDS011;1961;48.194;16.370;2023-02-25T05:56:13;39.95;;;4.22;;
3891;SDS011;1961;48.194;16.370;2023-02-25T05:58:39;39.83;;;4.65;;
3891;SDS011;1961;48.194;16.370;2023-02-25T06:01:06;39.53;;;4.45;;
3891;SDS011;1961;48.194;16.370;2023-02-25T06:03:36;39.28;;;4.10;;
3891;SDS011;1961;48.194;16.370;2023-02-25T06:06:02;39.40;;;4.03;;
3891;SDS011;1961;48.194;16.370;2023-02-25T06:08:28;39.42;;;4.07;;
3891;SDS011;1961;48.194;16.370;2023-02-25T06:10:55;39.58;;;4.07;;
3891;SDS011;1961;48.194;16.370;2023-02-25T06:13:21;40.50;;;4.40;;
3891;SDS011;1961;48.194;16.370;2023-02-25T06:15:48;39.72;;;3.92;;
3891;SDS011;1961;48.194;16.370;2023-02-25T06:18:14;40.60;;;4.85;;
3891;SDS011;1961;48.194;16.370;2023-02-25T06:20:40;39.92;;;4.80;;
3891;SDS011;1961;48.194;16.370;2023-02-25T06:23:06;40.00;;;4.35;;
3891;SDS011;1961;48.194;16.370;2023-02-25T06:25:32;39.70;;;4.97;;
3891;SDS011;1961;48.194;16.370;2023-02-25T06:27:59;39.85;;;4.47;;
3891;SDS011;1961;48.194;16.370;2023-02-25T06:30:26;41.03;;;5.13;;
3891;SDS011;1961;48.194;16.370;2023-02-25T06:32:53;40.47;;;5.03;;
3891;SDS011;1961;48.194;16.370;2023-02-25T06:35:19;39.42;;;4.13;;
3891;SDS011;1961;48.194;16.370;2023-02-25T06:37:48;39.85;;;4.55;;
3891;SDS011;1961;48.194;16.370;2023-02-25T06:40:14;40.15;;;4.97;;
3891;SDS011;1961;48.194;16.370;2023-02-25T06:42:41;40.38;;;4.85;;
3891;SDS011;1961;48.194;16.370;2023-02-25T06:45:07;39.90;;;4.57;;
3891;SDS011;1961;48.194;16.370;2023-02-25T06:47:33;39.58;;;4.35;;
3891;SDS011;1961;48.194;16.370;2023-02-25T06:49:59;39.75;;;4.05;;
3891;SDS011;1961;48.194;16.370;2023-02-25T06:52:26;40.40;;;4.53;;
3891;SDS011;1961;48.194;16.370;2023-02-25T06:54:52;39.67;;;4.55;;
3891;SDS011;1961;48.194;16.370;2023-02-25T06:57:18;39.67;;;4.60;;
3891;SDS011;1961;48.194;16.370;2023-02-25T06:59:45;39.85;;;4.50;;
3891;SDS011;1961;48.194;16.370;2023-02-25T07:02:11;40.08;;;4.78;;
3891;SDS011;1961;48.194;16.370;2023-02-25T07:04:38;42.15;;;4.47;;
3891;SDS011;1961;48.194;16.370;2023-02-25T07:07:04;40.15;;;4.95;;
3891;SDS011;1961;48.194;16.370;2023-02-25T07:09:31;40.10;;;4.82;;
3891;SDS011;1961;48.194;16.370;2023-02-25T07:11:57;39.53;;;4.22;;
3891;SDS011;1961;48.194;16.370;2023-02-25T07:14:24;42.10;;;4.78;;
3891;SDS011;1961;48.194;16.370;2023-02-25T07:16:50;39.92;;;4.75;;
3891;SDS011;1961;48.194;16.370;2023-02-25T07:19:16;39.55;;;4.35;;
3891;SDS011;1961;48.194;16.370;2023-02-25T07:21:42;39.40;;;4.00;;
3891;SDS011;1961;48.194;16.370;2023-02-25T07:24:09;39.60;;;4.28;;
3891;SDS011;1961;48.194;16.370;2023-02-25T07:26:36;39.72;;;4.35;;
3891;SDS011;1961;48.194;16.370;2023-02-25T07:29:03;40.25;;;4.05;;
3891;SDS011;1961;48.194;16.370;2023-02-25T07:31:29;41.22;;;4.50;;
3891;SDS011;1961;48.194;16.370;2023-02-25T07:33:56;42.85;;;4.30;;
3891;SDS011;1961;48.194;16.370;2023-02-25T07:36:27;39.42;;;3.90;;
3891;SDS011;1961;48.194;16.370;2023-02-25T07:38:55;40.67;;;4.45;;
3891;SDS011;1961;48.194;16.370;2023-02-25T07:41:21;40.63;;;4.55;;
3891;SDS011;1961;48.194;16.370;2023-02-25T07:43:47;40.25;;;3.90;;
3891;SDS011;1961;48.194;16.370;2023-02-25T07:46:13;40.45;;;3.80;;
3891;SDS011;1961;48.194;16.370;2023-02-25T07:48:39;40.65;;;4.20;;
3891;SDS011;1961;48.194;16.370;2023-02-25T07:51:07;40.70;;;4.95;;
3891;SDS011;1961;48.194;16.370;2023-02-25T07:53:34;40.30;;;4.25;;
3891;SDS011;1961;48.194;16.370;2023-02-25T07:56:00;42.40;;;4.65;;
3891;SDS011;1961;48.194;16.370;2023-02-25T07:58:26;39.67;;;4.82;;
3891;SDS011;1961;48.194;16.370;2023-02-25T08:00:53;41.83;;;4.22;;
3891;SDS011;1961;48.194;16.370;2023-02-25T08:03:20;42.08;;;4.35;;
3891;SDS011;1961;48.194;16.370;2023-02-25T08:05:49;39.60;;;4.13;;
3891;SDS011;1961;48.194;16.370;2023-02-25T08:08:16;40.90;;;4.88;;
3891;SDS011;1961;48.194;16.370;2023-02-25T08:10:42;40.70;;;5.53;;
3891;SDS011;1961;48.194;16.370;2023-02-25T08:13:08;40.22;;;4.35;;
3891;SDS011;1961;48.194;16.370;2023-02-25T08:15:38;40.22;;;4.28;;
3891;SDS011;1961;48.194;16.370;2023-02-25T08:18:04;44.70;;;4.25;;
3891;SDS011;1961;48.194;16.370;2023-02-25T08:20:31;40.15;;;4.07;;
3891;SDS011;1961;48.194;16.370;2023-02-25T08:22:57;40.45;;;4.75;;
3891;SDS011;1961;48.194;16.370;2023-02-25T08:25:23;40.05;;;4.22;;
3891;SDS011;1961;48.194;16.370;2023-02-25T08:27:49;39.85;;;4.30;;
3891;SDS011;1961;48.194;16.370;2023-02-25T08:30:15;40.25;;;4.20;;
3891;SDS011;1961;48.194;16.370;2023-02-25T08:32:41;40.30;;;4.03;;
3891;SDS011;1961;48.194;16.370;2023-02-25T08:35:08;40.97;;;4.72;;
3891;SDS011;1961;48.194;16.370;2023-02-25T08:37:34;40.38;;;4.45;;
3891;SDS011;1961;48.194;16.370;2023-02-25T08:40:00;40.00;;;4.78;;
3891;SDS011;1961;48.194;16.370;2023-02-25T08:42:26;40.20;;;4.10;;
3891;SDS011;1961;48.194;16.370;2023-02-25T08:44:52;40.50;;;4.63;;
3891;SDS011;1961;48.194;16.370;2023-02-25T08:47:19;40.90;;;4.32;;
3891;SDS011;1961;48.194;16.370;2023-02-25T08:49:45;40.50;;;5.07;;
3891;SDS011;1961;48.194;16.370;2023-02-25T08:52:12;40.22;;;4.75;;
3891;SDS011;1961;48.194;16.370;2023-02-25T08:54:38;42.17;;;4.88;;
3891;SDS011;1961;48.194;16.370;2023-02-25T08:57:05;41.60;;;5.10;;
3891;SDS011;1961;48.194;16.370;2023-02-25T08:59:31;40.08;;;4.50;;
3891;SDS011;1961;48.194;16.370;2023-02-25T09:02:06;40.00;;;4.78;;
3891;SDS011;1961;48.194;16.370;2023-02-25T09:04:37;40.42;;;4.50;;
3891;SDS011;1961;48.194;16.370;2023-02-25T09:07:03;39.97;;;4.30;;
3891;SDS011;1961;48.194;16.370;2023-02-25T09:09:29;41.03;;;5.10;;
3891;SDS011;1961;48.194;16.370;2023-02-25T09:11:58;39.90;;;4.13;;
3891;SDS011;1961;48.194;16.370;2023-02-25T09:14:24;40.90;;;5.05;;
3891;SDS011;1961;48.194;16.370;2023-02-25T09:16:50;40.03;;;4.25;;
3891;SDS011;1961;48.194;16.370;2023-02-25T09:19:16;41.88;;;4.97;;
3891;SDS011;1961;48.194;16.370;2023-02-25T09:21:43;40.25;;;4.72;;
3891;SDS011;1961;48.194;16.370;2023-02-25T09:24:12;41.17;;;5.28;;
3891;SDS011;1961;48.194;16.370;2023-02-25T09:26:38;40.75;;;5.32;;
3891;SDS011;1961;48.194;16.370;2023-02-25T09:29:05;40.88;;;4.82;;
3891;SDS011;1961;48.194;16.370;2023-02-25T09:31:32;40.13;;;4.15;;
3891;SDS011;1961;48.194;16.370;2023-02-25T09:34:00;41.67;;;5.20;;
3891;SDS011;1961;48.194;16.370;2023-02-25T09:36:28;43.03;;;5.90;;
3891;SDS011;1961;48.194;16.370;2023-02-25T09:38:55;40.42;;;4.30;;
3891;SDS011;1961;48.194;16.370;2023-02-25T09:41:30;41.15;;;4.75;;
3891;SDS011;1961;48.194;16.370;2023-02-25T09:44:02;40.45;;;4.88;;
3891;SDS011;1961;48.194;16.370;2023-02-25T09:46:30;41.53;;;4.88;;
3891;SDS011;1961;48.194;16.370;2023-02-25T09:49:09;40.65;;;4.85;;
3891;SDS011;1961;48.194;16.370;2023-02-25T09:51:42;41.58;;;4.78;;
3891;SDS011;1961;48.194;16.370;2023-02-25T09:54:55;40.05;;;4.60;;
3891;SDS011;1961;48.194;16.370;2023-02-25T09:57:02;41.65;;;5.28;;
3891;SDS011;1961;48.194;16.370;2023-02-25T09:59:29;45.33;;;5.13;;
3891;SDS011;1961;48.194;16.370;2023-02-25T10:01:58;40.95;;;5.75;;
3891;SDS011;1961;48.194;16.370;2023-02-25T10:04:36;40.40;;;5.10;;
3891;SDS011;1961;48.194;16.370;2023-02-25T10:07:14;44.58;;;4.22;;
3891;SDS011;1961;48.194;16.370;2023-02-25T10:09:50;42.05;;;5.18;;
3891;SDS011;1961;48.194;16.370;2023-02-25T10:17:40;40.78;;;5.05;;
3891;SDS011;1961;48.194;16.370;2023-02-25T10:25:36;40.75;;;5.07;;
3891;SDS011;1961;48.194;16.370;2023-02-25T10:28:05;40.88;;;4.50;;
3891;SDS011;1961;48.194;16.370;2023-02-25T10:30:45;41.60;;;5.20;;
3891;SDS011;1961;48.194;16.370;2023-02-25T10:33:13;41.00;;;4.72;;
3891;SDS011;1961;48.194;16.370;2023-02-25T10:35:40;40.17;;;4.40;;
3891;SDS011;1961;48.194;16.370;2023-02-25T10:38:08;40.35;;;4.95;;
3891;SDS011;1961;48.194;16.370;2023-02-25T10:40:36;40.72;;;4.90;;
3891;SDS011;1961;48.194;16.370;2023-02-25T10:43:21;42.30;;;5.10;;
3891;SDS011;1961;48.194;16.370;2023-02-25T10:45:54;41.42;;;4.80;;
3891;SDS011;1961;48.194;16.370;2023-02-25T10:48:22;41.47;;;5.07;;
3891;SDS011;1961;48.194;16.370;2023-02-25T10:51:11;41.47;;;4.90;;
3891;SDS011;1961;48.194;16.370;2023-02-25T10:53:38;43.65;;;4.65;;
3891;SDS011;1961;48.194;16.370;2023-02-25T10:56:04;41.10;;;4.50;;
3891;SDS011;1961;48.194;16.370;2023-02-25T10:58:40;57.47;;;5.13;;
3891;SDS011;1961;48.194;16.370;2023-02-25T11:03:51;41.33;;;4.78;;
3891;SDS011;1961;48.194;16.370;2023-02-25T11:08:44;45.53;;;6.05;;
3891;SDS011;1961;48.194;16.370;2023-02-25T11:11:18;42.00;;;4.68;;
3891;SDS011;1961;48.194;16.370;2023-02-25T11:13:52;42.08;;;4.55;;
3891;SDS011;1961;48.194;16.370;2023-02-25T11:16:18;39.72;;;3.95;;
3891;SDS011;1961;48.194;16.370;2023-02-25T11:18:45;43.67;;;4.57;;
3891;SDS011;1961;48.194;16.370;2023-02-25T11:21:15;41.65;;;4.60;;
3891;SDS011;1961;48.194;16.370;2023-02-25T11:23:52;42.63;;;4.45;;
3891;SDS011;1961;48.194;16.370;2023-02-25T11:26:32;40.25;;;4.40;;
3891;SDS011;1961;48.194;16.370;2023-02-25T11:29:00;40.20;;;4.10;;
3891;SDS011;1961;48.194;16.370;2023-02-25T11:31:32;43.47;;;4.90;;
3891;SDS011;1961;48.194;16.370;2023-02-25T11:34:00;41.05;;;4.57;;
3891;SDS011;1961;48.194;16.370;2023-02-25T11:36:28;40.28;;;4.30;;
3891;SDS011;1961;48.194;16.370;2023-02-25T11:39:06;41.35;;;5.05;;
3891;SDS011;1961;48.194;16.370;2023-02-25T11:41:36;46.30;;;5.43;;
3891;SDS011;1961;48.194;16.370;2023-02-25T11:45:03;45.45;;;5.15;;
3891;SDS011;1961;48.194;16.370;2023-02-25T11:52:10;42.47;;;4.90;;
3891;SDS011;1961;48.194;16.370;2023-02-25T11:54:43;40.55;;;4.90;;
3891;SDS011;1961;48.194;16.370;2023-02-25T11:57:13;40.40;;;4.15;;
3891;SDS011;1961;48.194;16.370;2023-02-25T11:59:50;40.80;;;4.88;;
3891;SDS011;1961;48.194;16.370;2023-02-25T12:15:26;42.78;;;4.80;;
3891;SDS011;1961;48.194;16.370;2023-02-25T12:28:39;40.95;;;4.93;;
3891;SDS011;1961;48.194;16.370;2023-02-25T12:41:43;40.30;;;4.10;;
3891;SDS011;1961;48.194;16.370;2023-02-25T12:44:25;43.50;;;4.50;;
3891;SDS011;1961;48.194;16.370;2023-02-25T12:49:42;41.65;;;5.03;;
3891;SDS011;1961;48.194;16.370;2023-02-25T12:59:57;40.78;;;4.40;;
3891;SDS011;1961;48.194;16.370;2023-02-25T13:10:15;41.28;;;4.30;;
3891;SDS011;1961;48.194;16.370;2023-02-25T13:18:17;41.55;;;4.70;;
3891;SDS011;1961;48.194;16.370;2023-02-25T13:21:01;39.47;;;4.20;;
3891;SDS011;1961;48.194;16.370;2023-02-25T13:34:33;41.90;;;4.85;;
3891;SDS011;1961;48.194;16.370;2023-02-25T13:37:15;40.13;;;4.38;;
3891;SDS011;1961;48.194;16.370;2023-02-25T13:40:03;40.42;;;4.15;;
3891;SDS011;1961;48.194;16.370;2023-02-25T14:23:54;42.95;;;5.43;;
3891;SDS011;1961;48.194;16.370;2023-02-25T14:29:15;42.40;;;4.85;;
3891;SDS011;1961;48.194;16.370;2023-02-25T14:34:34;40.85;;;4.18;;
3891;SDS011;1961;48.194;16.370;2023-02-25T14:47:37;39.88;;;4.18;;
3891;SDS011;1961;48.194;16.370;2023-02-25T14:50:14;40.58;;;4.25;;
3891;SDS011;1961;48.194;16.370;2023-02-25T15:03:16;42.60;;;4.80;;
3891;SDS011;1961;48.194;16.370;2023-02-25T15:06:01;42.40;;;4.93;;
3891;SDS011;1961;48.194;16.370;2023-02-25T15:18:52;41.70;;;4.47;;
3891;SDS011;1961;48.194;16.370;2023-02-25T15:23:54;41.70;;;5.10;;
3891;SDS011;1961;48.194;16.370;2023-02-25T15:26:24;43.47;;;4.95;;
3891;SDS011;1961;48.194;16.370;2023-02-25T15:28:52;40.65;;;4.55;;
3891;SDS011;1961;48.194;16.370;2023-02-25T15:33:53;41.70;;;4.97;;
3891;SDS011;1961;48.194;16.370;2023-02-25T15:36:26;40.33;;;4.50;;
3891;SDS011;1961;48.194;16.370;2023-02-25T15:38:53;42.30;;;4.45;;
3891;SDS011;1961;48.194;16.370;2023-02-25T15:43:48;40.55;;;4.47;;
3891;SDS011;1961;48.194;16.370;2023-02-25T15:48:45;41.53;;;4.80;;
3891;SDS011;1961;48.194;16.370;2023-02-25T15:51:35;41.05;;;4.55;;
3891;SDS011;1961;48.194;16.370;2023-02-25T15:53:58;41.60;;;5.25;;
3891;SDS011;1961;48.194;16.370;2023-02-25T15:56:27;40.60;;;5.05;;
3891;SDS011;1961;48.194;16.370;2023-02-25T15:58:56;43.25;;;4.70;;
3891;SDS011;1961;48.194;16.370;2023-02-25T16:01:27;40.63;;;4.50;;
3891;SDS011;1961;48.194;16.370;2023-02-25T16:03:54;41.35;;;4.47;;
3891;SDS011;1961;48.194;16.370;2023-02-25T16:11:41;41.17;;;5.20;;
3891;SDS011;1961;48.194;16.370;2023-02-25T16:14:19;41.70;;;5.20;;
3891;SDS011;1961;48.194;16.370;2023-02-25T16:17:05;41.45;;;4.80;;
3891;SDS011;1961;48.194;16.370;2023-02-25T16:19:36;42.78;;;5.55;;
3891;SDS011;1961;48.194;16.370;2023-02-25T16:24:32;41.95;;;5.68;;
3891;SDS011;1961;48.194;16.370;2023-02-25T16:27:02;43.45;;;5.88;;
3891;SDS011;1961;48.194;16.370;2023-02-25T16:32:09;41.53;;;5.60;;
3891;SDS011;1961;48.194;16.370;2023-02-25T16:37:18;41.92;;;4.55;;
3891;SDS011;1961;48.194;16.370;2023-02-25T16:39:48;40.60;;;4.55;;
3891;SDS011;1961;48.194;16.370;2023-02-25T16:42:15;40.95;;;4.85;;
3891;SDS011;1961;48.194;16.370;2023-02-25T16:44:46;40.15;;;4.15;;
3891;SDS011;1961;48.194;16.370;2023-02-25T16:47:29;41.75;;;4.78;;
3891;SDS011;1961;48.194;16.370;2023-02-25T16:49:57;43.30;;;6.32;;
3891;SDS011;1961;48.194;16.370;2023-02-25T16:52:37;42.22;;;4.80;;
3891;SDS011;1961;48.194;16.370;2023-02-25T16:55:06;40.20;;;4.00;;
3891;SDS011;1961;48.194;16.370;2023-02-25T16:57:36;42.60;;;5.47;;
3891;SDS011;1961;48.194;16.370;2023-02-25T17:00:04;42.30;;;5.47;;
3891;SDS011;1961;48.194;16.370;2023-02-25T17:02:31;41.10;;;4.70;;
3891;SDS011;1961;48.194;16.370;2023-02-25T17:04:57;41.60;;;4.35;;
3891;SDS011;1961;48.194;16.370;2023-02-25T17:07:24;41.22;;;5.00;;
3891;SDS011;1961;48.194;16.370;2023-02-25T17:12:40;40.65;;;5.15;;
3891;SDS011;1961;48.194;16.370;2023-02-25T17:15:25;45.17;;;7.13;;
3891;SDS011;1961;48.194;16.370;2023-02-25T17:17:59;45.30;;;6.75;;
3891;SDS011;1961;48.194;16.370;2023-02-25T17:20:27;46.50;;;7.10;;
3891;SDS011;1961;48.194;16.370;2023-02-25T17:22:54;42.03;;;5.55;;
3891;SDS011;1961;48.194;16.370;2023-02-25T17:25:23;46.03;;;6.47;;
3891;SDS011;1961;48.194;16.370;2023-02-25T17:27:51;43.45;;;6.80;;
3891;SDS011;1961;48.194;16.370;2023-02-25T17:30:35;43.72;;;7.53;;
3891;SDS011;1961;48.194;16.370;2023-02-25T17:33:02;43.40;;;6.57;;
3891;SDS011;1961;48.194;16.370;2023-02-25T17:35:29;43.30;;;6.50;;
3891;SDS011;1961;48.194;16.370;2023-02-25T17:37:59;44.58;;;6.30;;
3891;SDS011;1961;48.194;16.370;2023-02-25T17:40:26;43.45;;;6.70;;
3891;SDS011;1961;48.194;16.370;2023-02-25T17:45:39;43.78;;;6.88;;
3891;SDS011;1961;48.194;16.370;2023-02-25T17:48:16;44.90;;;7.10;;
3891;SDS011;1961;48.194;16.370;2023-02-25T17:50:43;48.33;;;7.45;;
3891;SDS011;1961;48.194;16.370;2023-02-25T17:53:24;44.40;;;7.10;;
3891;SDS011;1961;48.194;16.370;2023-02-25T17:55:53;43.22;;;7.22;;
3891;SDS011;1961;48.194;16.370;2023-02-25T17:58:21;45.60;;;6.88;;
3891;SDS011;1961;48.194;16.370;2023-02-25T18:00:58;41.60;;;6.20;;
3891;SDS011;1961;48.194;16.370;2023-02-25T18:03:27;41.80;;;5.53;;
3891;SDS011;1961;48.194;16.370;2023-02-25T18:05:58;42.00;;;5.20;;
3891;SDS011;1961;48.194;16.370;2023-02-25T18:08:25;41.47;;;5.25;;
3891;SDS011;1961;48.194;16.370;2023-02-25T18:10:55;41.47;;;5.07;;
3891;SDS011;1961;48.194;16.370;2023-02-25T18:13:23;41.92;;;4.90;;
3891;SDS011;1961;48.194;16.370;2023-02-25T18:18:35;42.65;;;5.55;;
3891;SDS011;1961;48.194;16.370;2023-02-25T18:21:01;41.63;;;5.20;;
3891;SDS011;1961;48.194;16.370;2023-02-25T18:23:28;40.33;;;4.70;;
3891;SDS011;1961;48.194;16.370;2023-02-25T18:26:12;42.22;;;5.05;;
3891;SDS011;1961;48.194;16.370;2023-02-25T18:28:39;44.28;;;7.90;;
3891;SDS011;1961;48.194;16.370;2023-02-25T18:31:06;40.85;;;5.07;;
3891;SDS011;1961;48.194;16.370;2023-02-25T18:33:33;41.20;;;5.10;;
3891;SDS011;1961;48.194;16.370;2023-02-25T18:36:00;41.63;;;5.13;;
3891;SDS011;1961;48.194;16.370;2023-02-25T18:38:27;41.15;;;4.80;;
3891;SDS011;1961;48.194;16.370;2023-02-25T18:40:54;41.55;;;4.40;;
3891;SDS011;1961;48.194;16.370;2023-02-25T18:43:25;41.90;;;5.47;;